sensor_id;sensor_type;location;lat;lon;timestamp;P1;durP1;ratioP1;P2;durP2;ratioP2
8675;SDS011;4375;52.486;13.424;2024-02-23T00:01:28;13.90;;;1.47;;
8675;SDS011;4375;52.486;13.424;2024-02-23T00:03:53;14.20;;;1.33;;
8675;SDS011;4375;52.486;13.424;2024-02-23T00:06:20;13.67;;;1.53;;
8675;SDS011;4375;52.486;13.424;2024-02-23T00:08:48;13.10;;;1.17;;
8675;SDS011;4375;52.486;13.424;2024-02-23T00:11:13;12.97;;;1.50;;
8675;SDS011;4375;52.486;13.424;2024-02-23T00:13:39;14.50;;;1.60;;
8675;SDS011;4375;52.486;13.424;2024-02-23T00:16:04;13.33;;;1.43;;
8675;SDS011;4375;52.486;13.424;2024-02-23T00:18:30;13.20;;;1.50;;
8675;SDS011;4375;52.486;13.424;2024-02-23T00:20:56;13.90;;;1.47;;
8675;SDS011;4375;52.486;13.424;2024-02-23T00:23:21;13.10;;;1.20;;
8675;SDS011;4375;52.486;13.424;2024-02-23T00:25:47;14.20;;;1.83;;
8675;SDS011;4375;52.486;13.424;2024-02-23T00:28:13;13.20;;;1.40;;
8675;SDS011;4375;52.486;13.424;2024-02-23T00:30:38;15.27;;;1.60;;
8675;SDS011;4375;52.486;13.424;2024-02-23T00:33:04;13.50;;;1.40;;
8675;SDS011;4375;52.486;13.424;2024-02-23T00:35:30;13.37;;;1.37;;
8675;SDS011;4375;52.486;13.424;2024-02-23T00:37:55;13.60;;;1.47;;
8675;SDS011;4375;52.486;13.424;2024-02-23T00:40:21;14.00;;;1.60;;
8675;SDS011;4375;52.486;13.424;2024-02-23T00:42:48;13.93;;;1.60;;
8675;SDS011;4375;52.486;13.424;2024-02-23T00:45:14;14.00;;;1.73;;
8675;SDS011;4375;52.486;13.424;2024-02-23T00:47:40;16.70;;;1.60;;
8675;SDS011;4375;52.486;13.424;2024-02-23T00:50:05;13.60;;;1.83;;
8675;SDS011;4375;52.486;13.424;2024-02-23T00:52:31;13.50;;;1.50;;
8675;SDS011;4375;52.486;13.424;2024-02-23T00:54:57;18.10;;;1.60;;
8675;SDS011;4375;52.486;13.424;2024-02-23T00:57:23;13.70;;;1.80;;
8675;SDS011;4375;52.486;13.424;2024-02-23T00:59:54;13.73;;;1.43;;
8675;SDS011;4375;52.486;13.424;2024-02-23T01:02:21;13.57;;;1.60;;
8675;SDS011;4375;52.486;13.424;2024-02-23T01:04:46;13.30;;;1.30;;
8675;SDS011;4375;52.486;13.424;2024-02-23T01:07:12;13.40;;;1.50;;
8675;SDS011;4375;52.486;13.424;2024-02-23T01:09:38;13.27;;;1.27;;
8675;SDS011;4375;52.486;13.424;2024-02-23T01:12:03;14.33;;;1.60;;
8675;SDS011;4375;52.486;13.424;2024-02-23T01:14:29;13.27;;;1.57;;
8675;SDS011;4375;52.486;13.424;2024-02-23T01:16:55;14.53;;;1.70;;
8675;SDS011;4375;52.486;13.424;2024-02-23T01:19:20;15.17;;;1.37;;
8675;SDS011;4375;52.486;13.424;2024-02-23T01:21:46;13.70;;;1.50;;
8675;SDS011;4375;52.486;13.424;2024-02-23T01:24:11;13.57;;;1.90;;
8675;SDS011;4375;52.486;13.424;2024-02-23T01:26:37;13.90;;;1.50;;
8675;SDS011;4375;52.486;13.424;2024-02-23T01:29:03;12.77;;;1.10;;
8675;SDS011;4375;52.486;13.424;2024-02-23T01:31:28;18.03;;;1.57;;
8675;SDS011;4375;52.486;13.424;2024-02-23T01:33:54;13.03;;;1.40;;
8675;SDS011;4375;52.486;13.424;2024-02-23T01:36:20;13.30;;;1.30;;
8675;SDS011;4375;52.486;13.424;2024-02-23T01:38:45;14.10;;;1.60;;
8675;SDS011;4375;52.486;13.424;2024-02-23T01:41:11;13.10;;;1.30;;
8675;SDS011;4375;52.486;13.424;2024-02-23T01:43:37;15.20;;;1.70;;
8675;SDS011;4375;52.486;13.424;2024-02-23T01:46:03;13.20;;;1.30;;
8675;SDS011;4375;52.486;13.424;2024-02-23T01:48:29;14.27;;;1.40;;
8675;SDS011;4375;52.486;13.424;2024-02-23T01:50:59;14.17;;;1.27;;
8675;SDS011;4375;52.486;13.424;2024-02-23T01:53:25;12.97;;;1.30;;
8675;SDS011;4375;52.486;13.424;2024-02-23T01:55:52;13.30;;;1.30;;
8675;SDS011;4375;52.486;13.424;2024-02-23T01:58:19;13.60;;;1.30;;
8675;SDS011;4375;52.486;13.424;2024-02-23T02:00:44;13.47;;;1.30;;
8675;SDS011;4375;52.486;13.424;2024-02-23T02:03:10;14.70;;;1.50;;
8675;SDS011;4375;52.486;13.424;2024-02-23T02:05:36;13.70;;;1.40;;
8675;SDS011;4375;52.486;13.424;2024-02-23T02:08:02;14.00;;;1.20;;
8675;SDS011;4375;52.486;13.424;2024-02-23T02:10:29;13.67;;;1.20;;
8675;SDS011;4375;52.486;13.424;2024-02-23T02:12:54;14.30;;;1.27;;
8675;SDS011;4375;52.486;13.424;2024-02-23T02:15:20;14.07;;;1.13;;
8675;SDS011;4375;52.486;13.424;2024-02-23T02:17:47;13.47;;;1.13;;
8675;SDS011;4375;52.486;13.424;2024-02-23T02:20:13;16.43;;;1.27;;
8675;SDS011;4375;52.486;13.424;2024-02-23T02:22:39;15.90;;;1.40;;
8675;SDS011;4375;52.486;13.424;2024-02-23T02:25:05;12.97;;;1.00;;
8675;SDS011;4375;52.486;13.424;2024-02-23T02:27:31;12.90;;;1.00;;
8675;SDS011;4375;52.486;13.424;2024-02-23T02:29:57;12.70;;;0.93;;
8675;SDS011;4375;52.486;13.424;2024-02-23T02:32:22;14.17;;;0.90;;
8675;SDS011;4375;52.486;13.424;2024-02-23T02:34:48;13.40;;;1.00;;
8675;SDS011;4375;52.486;13.424;2024-02-23T02:37:14;15.80;;;1.20;;
8675;SDS011;4375;52.486;13.424;2024-02-23T02:39:40;13.90;;;1.03;;
8675;SDS011;4375;52.486;13.424;2024-02-23T02:42:06;12.90;;;0.80;;
8675;SDS011;4375;52.486;13.424;2024-02-23T02:44:32;14.70;;;1.00;;
8675;SDS011;4375;52.486;13.424;2024-02-23T02:46:57;14.27;;;0.90;;
8675;SDS011;4375;52.486;13.424;2024-02-23T02:49:23;15.00;;;0.90;;
8675;SDS011;4375;52.486;13.424;2024-02-23T02:51:49;16.93;;;1.10;;
8675;SDS011;4375;52.486;13.424;2024-02-23T02:54:15;15.97;;;1.10;;
8675;SDS011;4375;52.486;13.424;2024-02-23T02:56:44;13.80;;;1.07;;
8675;SDS011;4375;52.486;13.424;2024-02-23T02:59:11;12.90;;;0.80;;
8675;SDS011;4375;52.486;13.424;2024-02-23T03:01:37;15.17;;;1.00;;
8675;SDS011;4375;52.486;13.424;2024-02-23T03:04:03;13.80;;;0.97;;
8675;SDS011;4375;52.486;13.424;2024-02-23T03:06:29;12.93;;;0.80;;
8675;SDS011;4375;52.486;13.424;2024-02-23T03:08:55;15.40;;;0.80;;
8675;SDS011;4375;52.486;13.424;2024-02-23T03:11:20;13.00;;;1.00;;
8675;SDS011;4375;52.486;13.424;2024-02-23T03:13:46;12.97;;;1.00;;
8675;SDS011;4375;52.486;13.424;2024-02-23T03:16:20;13.70;;;1.10;;
8675;SDS011;4375;52.486;13.424;2024-02-23T03:18:48;12.67;;;0.90;;
8675;SDS011;4375;52.486;13.424;2024-02-23T03:21:14;13.40;;;0.87;;
8675;SDS011;4375;52.486;13.424;2024-02-23T03:23:40;12.83;;;0.90;;
8675;SDS011;4375;52.486;13.424;2024-02-23T03:26:06;12.97;;;0.90;;
8675;SDS011;4375;52.486;13.424;2024-02-23T03:28:32;14.33;;;1.00;;
8675;SDS011;4375;52.486;13.424;2024-02-23T03:30:58;13.90;;;0.80;;
8675;SDS011;4375;52.486;13.424;2024-02-23T03:33:24;12.80;;;0.80;;
8675;SDS011;4375;52.486;13.424;2024-02-23T03:35:50;14.43;;;0.90;;
8675;SDS011;4375;52.486;13.424;2024-02-23T03:38:16;13.10;;;0.87;;
8675;SDS011;4375;52.486;13.424;2024-02-23T03:40:41;13.13;;;1.03;;
8675;SDS011;4375;52.486;13.424;2024-02-23T03:43:07;13.40;;;0.90;;
8675;SDS011;4375;52.486;13.424;2024-02-23T03:45:33;12.73;;;0.90;;
8675;SDS011;4375;52.486;13.424;2024-02-23T03:47:59;12.90;;;0.93;;
8675;SDS011;4375;52.486;13.424;2024-02-23T03:50:25;14.33;;;1.00;;
8675;SDS011;4375;52.486;13.424;2024-02-23T03:52:50;13.67;;;0.90;;
8675;SDS011;4375;52.486;13.424;2024-02-23T03:55:16;14.40;;;1.13;;
8675;SDS011;4375;52.486;13.424;2024-02-23T03:57:42;13.30;;;0.90;;
8675;SDS011;4375;52.486;13.424;2024-02-23T04:00:07;12.67;;;0.70;;
8675;SDS011;4375;52.486;13.424;2024-02-23T04:02:34;14.73;;;1.00;;
8675;SDS011;4375;52.486;13.424;2024-02-23T04:04:59;14.67;;;1.10;;
8675;SDS011;4375;52.486;13.424;2024-02-23T04:07:25;12.90;;;0.90;;
8675;SDS011;4375;52.486;13.424;2024-02-23T04:09:51;19.50;;;1.20;;
8675;SDS011;4375;52.486;13.424;2024-02-23T04:12:20;13.03;;;1.33;;
8675;SDS011;4375;52.486;13.424;2024-02-23T04:14:46;17.33;;;1.00;;
8675;SDS011;4375;52.486;13.424;2024-02-23T04:17:12;15.70;;;0.80;;
8675;SDS011;4375;52.486;13.424;2024-02-23T04:19:38;16.90;;;1.10;;
8675;SDS011;4375;52.486;13.424;2024-02-23T04:22:05;13.70;;;0.80;;
8675;SDS011;4375;52.486;13.424;2024-02-23T04:24:34;14.43;;;1.00;;
8675;SDS011;4375;52.486;13.424;2024-02-23T04:27:04;14.60;;;1.10;;
8675;SDS011;4375;52.486;13.424;2024-02-23T04:29:30;13.00;;;0.90;;
8675;SDS011;4375;52.486;13.424;2024-02-23T04:31:57;12.93;;;0.93;;
8675;SDS011;4375;52.486;13.424;2024-02-23T04:34:23;12.70;;;0.80;;
8675;SDS011;4375;52.486;13.424;2024-02-23T04:36:48;13.57;;;1.00;;
8675;SDS011;4375;52.486;13.424;2024-02-23T04:39:14;13.40;;;0.80;;
8675;SDS011;4375;52.486;13.424;2024-02-23T04:41:39;13.20;;;0.90;;
8675;SDS011;4375;52.486;13.424;2024-02-23T04:44:05;17.20;;;1.00;;
8675;SDS011;4375;52.486;13.424;2024-02-23T04:46:31;12.80;;;0.90;;
8675;SDS011;4375;52.486;13.424;2024-02-23T04:48:57;15.00;;;0.80;;
8675;SDS011;4375;52.486;13.424;2024-02-23T04:51:22;15.07;;;0.90;;
8675;SDS011;4375;52.486;13.424;2024-02-23T04:53:48;12.73;;;0.80;;
8675;SDS011;4375;52.486;13.424;2024-02-23T04:56:15;15.43;;;0.90;;
8675;SDS011;4375;52.486;13.424;2024-02-23T04:58:40;13.47;;;0.83;;
8675;SDS011;4375;52.486;13.424;2024-02-23T05:01:07;13.80;;;0.83;;
8675;SDS011;4375;52.486;13.424;2024-02-23T05:03:33;16.43;;;1.10;;
8675;SDS011;4375;52.486;13.424;2024-02-23T05:05:59;13.13;;;0.90;;
8675;SDS011;4375;52.486;13.424;2024-02-23T05:08:25;12.97;;;0.90;;
8675;SDS011;4375;52.486;13.424;2024-02-23T05:10:52;12.67;;;0.80;;
8675;SDS011;4375;52.486;13.424;2024-02-23T05:13:18;13.60;;;1.37;;
8675;SDS011;4375;52.486;13.424;2024-02-23T05:15:44;13.10;;;0.90;;
8675;SDS011;4375;52.486;13.424;2024-02-23T05:18:09;18.10;;;0.90;;
8675;SDS011;4375;52.486;13.424;2024-02-23T05:20:35;12.73;;;0.80;;
8675;SDS011;4375;52.486;13.424;2024-02-23T05:23:04;14.33;;;0.80;;
8675;SDS011;4375;52.486;13.424;2024-02-23T05:25:29;13.67;;;0.80;;
8675;SDS011;4375;52.486;13.424;2024-02-23T05:27:55;12.80;;;1.00;;
8675;SDS011;4375;52.486;13.424;2024-02-23T05:30:21;12.67;;;0.80;;
8675;SDS011;4375;52.486;13.424;2024-02-23T05:32:47;12.80;;;0.90;;
8675;SDS011;4375;52.486;13.424;2024-02-23T05:35:13;13.10;;;0.80;;
8675;SDS011;4375;52.486;13.424;2024-02-23T05:37:38;13.93;;;0.70;;
8675;SDS011;4375;52.486;13.424;2024-02-23T05:40:05;13.03;;;0.87;;
8675;SDS011;4375;52.486;13.424;2024-02-23T05:42:35;12.77;;;0.80;;
8675;SDS011;4375;52.486;13.424;2024-02-23T05:45:01;19.90;;;1.00;;
8675;SDS011;4375;52.486;13.424;2024-02-23T05:47:29;12.77;;;0.90;;
8675;SDS011;4375;52.486;13.424;2024-02-23T05:49:55;12.70;;;0.70;;
8675;SDS011;4375;52.486;13.424;2024-02-23T05:52:21;12.77;;;0.80;;
8675;SDS011;4375;52.486;13.424;2024-02-23T05:54:47;12.83;;;0.90;;
8675;SDS011;4375;52.486;13.424;2024-02-23T05:57:12;12.93;;;0.80;;
8675;SDS011;4375;52.486;13.424;2024-02-23T05:59:38;13.00;;;0.80;;
8675;SDS011;4375;52.486;13.424;2024-02-23T06:02:04;12.90;;;0.80;;
8675;SDS011;4375;52.486;13.424;2024-02-23T06:04:29;12.67;;;0.70;;
8675;SDS011;4375;52.486;13.424;2024-02-23T06:06:55;13.07;;;0.90;;
8675;SDS011;4375;52.486;13.424;2024-02-23T06:09:21;14.77;;;1.10;;
8675;SDS011;4375;52.486;13.424;2024-02-23T06:11:47;13.57;;;0.87;;
8675;SDS011;4375;52.486;13.424;2024-02-23T06:14:12;13.30;;;1.00;;
8675;SDS011;4375;52.486;13.424;2024-02-23T06:16:38;12.73;;;0.80;;
8675;SDS011;4375;52.486;13.424;2024-02-23T06:19:05;12.67;;;0.80;;
8675;SDS011;4375;52.486;13.424;2024-02-23T06:21:31;12.83;;;0.83;;
8675;SDS011;4375;52.486;13.424;2024-02-23T06:23:57;13.50;;;1.07;;
8675;SDS011;4375;52.486;13.424;2024-02-23T06:26:23;12.70;;;0.80;;
8675;SDS011;4375;52.486;13.424;2024-02-23T06:28:48;13.27;;;0.90;;
8675;SDS011;4375;52.486;13.424;2024-02-23T06:31:14;12.83;;;1.00;;
8675;SDS011;4375;52.486;13.424;2024-02-23T06:33:40;12.77;;;0.90;;
8675;SDS011;4375;52.486;13.424;2024-02-23T06:36:06;12.80;;;0.80;;
8675;SDS011;4375;52.486;13.424;2024-02-23T06:38:32;12.73;;;0.90;;
8675;SDS011;4375;52.486;13.424;2024-02-23T06:40:58;13.10;;;0.80;;
8675;SDS011;4375;52.486;13.424;2024-02-23T06:43:24;12.70;;;0.80;;
8675;SDS011;4375;52.486;13.424;2024-02-23T06:45:50;12.70;;;0.83;;
8675;SDS011;4375;52.486;13.424;2024-02-23T06:48:16;13.73;;;1.00;;
8675;SDS011;4375;52.486;13.424;2024-02-23T06:50:42;12.80;;;0.80;;
8675;SDS011;4375;52.486;13.424;2024-02-23T06:53:07;14.27;;;1.10;;
8675;SDS011;4375;52.486;13.424;2024-02-23T06:55:36;12.70;;;0.80;;
8675;SDS011;4375;52.486;13.424;2024-02-23T06:58:02;12.77;;;0.90;;
8675;SDS011;4375;52.486;13.424;2024-02-23T07:00:29;12.97;;;0.90;;
8675;SDS011;4375;52.486;13.424;2024-02-23T07:02:55;12.97;;;1.07;;
8675;SDS011;4375;52.486;13.424;2024-02-23T07:05:24;25.87;;;1.10;;
8675;SDS011;4375;52.486;13.424;2024-02-23T07:07:50;13.10;;;1.20;;
8675;SDS011;4375;52.486;13.424;2024-02-23T07:10:15;12.80;;;1.00;;
8675;SDS011;4375;52.486;13.424;2024-02-23T07:12:43;12.90;;;1.00;;
8675;SDS011;4375;52.486;13.424;2024-02-23T07:15:09;13.70;;;1.03;;
8675;SDS011;4375;52.486;13.424;2024-02-23T07:17:35;13.50;;;1.20;;
8675;SDS011;4375;52.486;13.424;2024-02-23T07:20:00;12.90;;;0.90;;
8675;SDS011;4375;52.486;13.424;2024-02-23T07:22:30;13.07;;;1.03;;
8675;SDS011;4375;52.486;13.424;2024-02-23T07:24:56;15.40;;;1.20;;
8675;SDS011;4375;52.486;13.424;2024-02-23T07:27:22;13.03;;;1.10;;
8675;SDS011;4375;52.486;13.424;2024-02-23T07:29:48;13.47;;;1.03;;
8675;SDS011;4375;52.486;13.424;2024-02-23T07:32:14;12.83;;;1.00;;
8675;SDS011;4375;52.486;13.424;2024-02-23T07:34:39;12.80;;;0.90;;
8675;SDS011;4375;52.486;13.424;2024-02-23T07:37:05;12.63;;;0.80;;
8675;SDS011;4375;52.486;13.424;2024-02-23T07:39:30;13.23;;;1.10;;
8675;SDS011;4375;52.486;13.424;2024-02-23T07:41:56;12.93;;;0.90;;
8675;SDS011;4375;52.486;13.424;2024-02-23T07:44:22;12.77;;;0.97;;
8675;SDS011;4375;52.486;13.424;2024-02-23T07:46:50;15.40;;;1.10;;
8675;SDS011;4375;52.486;13.424;2024-02-23T07:49:19;13.07;;;1.00;;
8675;SDS011;4375;52.486;13.424;2024-02-23T07:51:44;12.77;;;1.00;;
8675;SDS011;4375;52.486;13.424;2024-02-23T07:54:10;12.87;;;1.00;;
8675;SDS011;4375;52.486;13.424;2024-02-23T07:56:36;13.10;;;0.90;;
8675;SDS011;4375;52.486;13.424;2024-02-23T07:59:01;14.87;;;1.07;;
8675;SDS011;4375;52.486;13.424;2024-02-23T08:01:28;12.70;;;0.90;;
8675;SDS011;4375;52.486;13.424;2024-02-23T08:03:53;13.40;;;0.90;;
8675;SDS011;4375;52.486;13.424;2024-02-23T08:06:19;13.00;;;0.90;;
8675;SDS011;4375;52.486;13.424;2024-02-23T08:08:45;13.40;;;1.10;;
8675;SDS011;4375;52.486;13.424;2024-02-23T08:11:11;13.03;;;1.07;;
8675;SDS011;4375;52.486;13.424;2024-02-23T08:13:38;12.70;;;0.90;;
8675;SDS011;4375;52.486;13.424;2024-02-23T08:16:04;12.87;;;0.83;;
8675;SDS011;4375;52.486;13.424;2024-02-23T08:18:30;13.30;;;1.10;;
8675;SDS011;4375;52.486;13.424;2024-02-23T08:20:56;12.63;;;0.80;;
8675;SDS011;4375;52.486;13.424;2024-02-23T08:23:23;13.73;;;1.13;;
8675;SDS011;4375;52.486;13.424;2024-02-23T08:25:49;12.83;;;0.90;;
8675;SDS011;4375;52.486;13.424;2024-02-23T08:28:15;12.73;;;0.80;;
8675;SDS011;4375;52.486;13.424;2024-02-23T08:30:41;13.30;;;1.00;;
8675;SDS011;4375;52.486;13.424;2024-02-23T08:33:07;14.00;;;1.10;;
8675;SDS011;4375;52.486;13.424;2024-02-23T08:35:34;12.67;;;0.90;;
8675;SDS011;4375;52.486;13.424;2024-02-23T08:38:00;13.40;;;0.93;;
8675;SDS011;4375;52.486;13.424;2024-02-23T08:40:26;14.57;;;1.00;;
8675;SDS011;4375;52.486;13.424;2024-02-23T08:42:51;13.70;;;1.27;;
8675;SDS011;4375;52.486;13.424;2024-02-23T08:45:17;12.63;;;0.80;;
8675;SDS011;4375;52.486;13.424;2024-02-23T08:47:43;14.17;;;1.40;;
8675;SDS011;4375;52.486;13.424;2024-02-23T08:50:09;17.63;;;1.23;;
8675;SDS011;4375;52.486;13.424;2024-02-23T08:52:34;13.63;;;1.07;;
8675;SDS011;4375;52.486;13.424;2024-02-23T08:55:00;12.83;;;0.90;;
8675;SDS011;4375;52.486;13.424;2024-02-23T08:57:27;13.27;;;1.30;;
8675;SDS011;4375;52.486;13.424;2024-02-23T08:59:52;13.93;;;0.87;;
8675;SDS011;4375;52.486;13.424;2024-02-23T09:02:18;13.20;;;1.00;;
8675;SDS011;4375;52.486;13.424;2024-02-23T09:04:44;12.87;;;0.90;;
8675;SDS011;4375;52.486;13.424;2024-02-23T09:07:10;17.40;;;1.10;;
8675;SDS011;4375;52.486;13.424;2024-02-23T09:09:37;13.57;;;1.03;;
8675;SDS011;4375;52.486;13.424;2024-02-23T09:12:02;21.40;;;1.83;;
8675;SDS011;4375;52.486;13.424;2024-02-23T09:14:28;15.47;;;1.23;;
8675;SDS011;4375;52.486;13.424;2024-02-23T09:16:54;12.93;;;1.10;;
8675;SDS011;4375;52.486;13.424;2024-02-23T09:19:20;19.23;;;1.17;;
8675;SDS011;4375;52.486;13.424;2024-02-23T09:21:48;14.00;;;1.10;;
8675;SDS011;4375;52.486;13.424;2024-02-23T09:24:14;18.03;;;0.87;;
8675;SDS011;4375;52.486;13.424;2024-02-23T09:26:40;13.30;;;1.00;;
8675;SDS011;4375;52.486;13.424;2024-02-23T09:29:06;13.00;;;0.90;;
8675;SDS011;4375;52.486;13.424;2024-02-23T09:31:34;15.60;;;1.10;;
8675;SDS011;4375;52.486;13.424;2024-02-23T09:34:00;13.40;;;0.93;;
8675;SDS011;4375;52.486;13.424;2024-02-23T09:36:26;15.20;;;1.10;;
8675;SDS011;4375;52.486;13.424;2024-02-23T09:38:51;14.57;;;0.90;;
8675;SDS011;4375;52.486;13.424;2024-02-23T09:41:20;15.73;;;1.47;;
8675;SDS011;4375;52.486;13.424;2024-02-23T09:43:47;13.30;;;0.97;;
8675;SDS011;4375;52.486;13.424;2024-02-23T09:46:17;12.90;;;0.80;;
8675;SDS011;4375;52.486;13.424;2024-02-23T09:48:43;13.70;;;1.07;;
8675;SDS011;4375;52.486;13.424;2024-02-23T09:51:10;13.00;;;0.80;;
8675;SDS011;4375;52.486;13.424;2024-02-23T09:53:37;18.40;;;1.20;;
8675;SDS011;4375;52.486;13.424;2024-02-23T09:56:04;14.17;;;0.83;;
8675;SDS011;4375;52.486;13.424;2024-02-23T09:58:31;14.83;;;1.20;;
8675;SDS011;4375;52.486;13.424;2024-02-23T10:01:01;13.60;;;1.00;;
8675;SDS011;4375;52.486;13.424;2024-02-23T10:03:28;14.67;;;0.90;;
8675;SDS011;4375;52.486;13.424;2024-02-23T10:06:02;13.73;;;0.90;;
8675;SDS011;4375;52.486;13.424;2024-02-23T10:08:28;14.17;;;1.00;;
8675;SDS011;4375;52.486;13.424;2024-02-23T10:10:54;13.20;;;0.90;;
8675;SDS011;4375;52.486;13.424;2024-02-23T10:13:21;13.20;;;0.90;;
8675;SDS011;4375;52.486;13.424;2024-02-23T10:15:49;13.13;;;1.03;;
8675;SDS011;4375;52.486;13.424;2024-02-23T10:18:16;12.97;;;0.90;;
8675;SDS011;4375;52.486;13.424;2024-02-23T10:20:42;13.10;;;1.00;;
8675;SDS011;4375;52.486;13.424;2024-02-23T10:23:08;13.23;;;0.80;;
8675;SDS011;4375;52.486;13.424;2024-02-23T10:25:34;13.53;;;0.80;;
8675;SDS011;4375;52.486;13.424;2024-02-23T10:28:01;16.03;;;0.80;;
8675;SDS011;4375;52.486;13.424;2024-02-23T10:30:27;15.50;;;1.00;;
8675;SDS011;4375;52.486;13.424;2024-02-23T10:32:55;12.93;;;1.00;;
8675;SDS011;4375;52.486;13.424;2024-02-23T10:35:22;14.90;;;1.40;;
8675;SDS011;4375;52.486;13.424;2024-02-23T10:37:49;12.47;;;0.80;;
8675;SDS011;4375;52.486;13.424;2024-02-23T10:40:16;13.53;;;1.20;;
8675;SDS011;4375;52.486;13.424;2024-02-23T10:42:46;13.13;;;0.90;;
8675;SDS011;4375;52.486;13.424;2024-02-23T10:45:20;16.70;;;0.90;;
8675;SDS011;4375;52.486;13.424;2024-02-23T10:47:49;16.30;;;1.10;;
8675;SDS011;4375;52.486;13.424;2024-02-23T10:50:16;14.33;;;0.90;;
8675;SDS011;4375;52.486;13.424;2024-02-23T10:52:44;13.23;;;0.80;;
8675;SDS011;4375;52.486;13.424;2024-02-23T10:55:11;15.10;;;1.10;;
8675;SDS011;4375;52.486;13.424;2024-02-23T10:57:39;13.60;;;1.40;;
8675;SDS011;4375;52.486;13.424;2024-02-23T11:00:05;15.60;;;0.90;;
8675;SDS011;4375;52.486;13.424;2024-02-23T11:02:36;13.03;;;0.93;;
8675;SDS011;4375;52.486;13.424;2024-02-23T11:05:06;13.30;;;0.80;;
8675;SDS011;4375;52.486;13.424;2024-02-23T11:07:37;14.37;;;1.20;;
8675;SDS011;4375;52.486;13.424;2024-02-23T11:10:04;13.27;;;0.90;;
8675;SDS011;4375;52.486;13.424;2024-02-23T11:12:30;16.27;;;1.00;;
8675;SDS011;4375;52.486;13.424;2024-02-23T11:14:56;14.10;;;1.10;;
8675;SDS011;4375;52.486;13.424;2024-02-23T11:17:26;13.53;;;1.00;;
8675;SDS011;4375;52.486;13.424;2024-02-23T11:19:54;16.00;;;1.03;;
8675;SDS011;4375;52.486;13.424;2024-02-23T11:24:59;14.10;;;0.90;;
8675;SDS011;4375;52.486;13.424;2024-02-23T11:27:30;13.80;;;1.10;;
8675;SDS011;4375;52.486;13.424;2024-02-23T11:30:04;13.40;;;0.90;;
8675;SDS011;4375;52.486;13.424;2024-02-23T11:32:41;13.00;;;0.90;;
8675;SDS011;4375;52.486;13.424;2024-02-23T11:35:08;12.83;;;0.90;;
8675;SDS011;4375;52.486;13.424;2024-02-23T11:40:14;14.13;;;1.00;;
8675;SDS011;4375;52.486;13.424;2024-02-23T11:42:43;12.87;;;0.80;;
8675;SDS011;4375;52.486;13.424;2024-02-23T11:45:11;15.53;;;0.87;;
8675;SDS011;4375;52.486;13.424;2024-02-23T11:47:37;13.80;;;0.80;;
8675;SDS011;4375;52.486;13.424;2024-02-23T11:50:04;13.80;;;1.13;;
8675;SDS011;4375;52.486;13.424;2024-02-23T11:52:33;15.60;;;1.57;;
8675;SDS011;4375;52.486;13.424;2024-02-23T11:54:59;13.80;;;1.20;;
8675;SDS011;4375;52.486;13.424;2024-02-23T11:57:24;13.40;;;0.90;;
8675;SDS011;4375;52.486;13.424;2024-02-23T11:59:51;13.83;;;1.10;;
8675;SDS011;4375;52.486;13.424;2024-02-23T12:02:17;13.63;;;1.20;;
8675;SDS011;4375;52.486;13.424;2024-02-23T12:04:43;14.13;;;1.10;;
8675;SDS011;4375;52.486;13.424;2024-02-23T12:07:08;13.70;;;0.93;;
8675;SDS011;4375;52.486;13.424;2024-02-23T12:09:34;14.90;;;1.03;;
8675;SDS011;4375;52.486;13.424;2024-02-23T12:12:00;18.60;;;1.00;;
8675;SDS011;4375;52.486;13.424;2024-02-23T12:14:26;12.73;;;0.77;;
8675;SDS011;4375;52.486;13.424;2024-02-23T12:16:52;13.77;;;1.07;;
8675;SDS011;4375;52.486;13.424;2024-02-23T12:19:17;15.80;;;1.00;;
8675;SDS011;4375;52.486;13.424;2024-02-23T12:21:46;13.23;;;0.90;;
8675;SDS011;4375;52.486;13.424;2024-02-23T12:24:12;14.07;;;0.97;;
8675;SDS011;4375;52.486;13.424;2024-02-23T12:26:37;13.10;;;1.00;;
8675;SDS011;4375;52.486;13.424;2024-02-23T12:29:04;14.90;;;1.00;;
8675;SDS011;4375;52.486;13.424;2024-02-23T12:31:31;13.83;;;1.00;;
8675;SDS011;4375;52.486;13.424;2024-02-23T12:33:57;15.40;;;1.10;;
8675;SDS011;4375;52.486;13.424;2024-02-23T12:36:22;13.80;;;1.20;;
8675;SDS011;4375;52.486;13.424;2024-02-23T12:38:48;13.70;;;1.10;;
8675;SDS011;4375;52.486;13.424;2024-02-23T12:41:14;13.30;;;1.00;;
8675;SDS011;4375;52.486;13.424;2024-02-23T12:43:39;14.13;;;1.00;;
8675;SDS011;4375;52.486;13.424;2024-02-23T12:46:05;13.73;;;1.00;;
8675;SDS011;4375;52.486;13.424;2024-02-23T12:48:33;14.27;;;1.03;;
8675;SDS011;4375;52.486;13.424;2024-02-23T12:50:59;14.10;;;1.10;;
8675;SDS011;4375;52.486;13.424;2024-02-23T12:53:31;13.07;;;1.00;;
8675;SDS011;4375;52.486;13.424;2024-02-23T12:55:57;13.20;;;0.90;;
8675;SDS011;4375;52.486;13.424;2024-02-23T12:58:23;12.70;;;0.90;;
8675;SDS011;4375;52.486;13.424;2024-02-23T13:00:49;14.57;;;1.00;;
8675;SDS011;4375;52.486;13.424;2024-02-23T13:03:15;16.30;;;1.40;;
8675;SDS011;4375;52.486;13.424;2024-02-23T13:05:40;15.07;;;0.90;;
8675;SDS011;4375;52.486;13.424;2024-02-23T13:08:06;14.17;;;0.80;;
8675;SDS011;4375;52.486;13.424;2024-02-23T13:10:31;15.10;;;1.37;;
8675;SDS011;4375;52.486;13.424;2024-02-23T13:12:57;14.20;;;1.53;;
8675;SDS011;4375;52.486;13.424;2024-02-23T13:15:23;15.10;;;1.30;;
8675;SDS011;4375;52.486;13.424;2024-02-23T13:17:48;13.97;;;1.33;;
8675;SDS011;4375;52.486;13.424;2024-02-23T13:20:14;13.10;;;0.90;;
8675;SDS011;4375;52.486;13.424;2024-02-23T13:22:39;14.57;;;1.50;;
8675;SDS011;4375;52.486;13.424;2024-02-23T13:25:05;14.40;;;1.77;;
8675;SDS011;4375;52.486;13.424;2024-02-23T13:27:31;14.10;;;1.20;;
8675;SDS011;4375;52.486;13.424;2024-02-23T13:29:57;14.87;;;1.30;;
8675;SDS011;4375;52.486;13.424;2024-02-23T13:32:22;16.10;;;1.40;;
8675;SDS011;4375;52.486;13.424;2024-02-23T13:34:48;14.30;;;1.50;;
8675;SDS011;4375;52.486;13.424;2024-02-23T13:37:17;14.70;;;1.90;;
8675;SDS011;4375;52.486;13.424;2024-02-23T13:39:43;16.93;;;1.50;;
8675;SDS011;4375;52.486;13.424;2024-02-23T13:42:08;14.33;;;1.13;;
8675;SDS011;4375;52.486;13.424;2024-02-23T13:44:35;16.10;;;1.50;;
8675;SDS011;4375;52.486;13.424;2024-02-23T13:47:01;13.80;;;1.40;;
8675;SDS011;4375;52.486;13.424;2024-02-23T13:49:27;15.80;;;1.30;;
8675;SDS011;4375;52.486;13.424;2024-02-23T13:51:52;16.27;;;1.70;;
8675;SDS011;4375;52.486;13.424;2024-02-23T13:54:18;15.50;;;1.70;;
8675;SDS011;4375;52.486;13.424;2024-02-23T13:56:44;13.70;;;1.00;;
8675;SDS011;4375;52.486;13.424;2024-02-23T13:59:09;13.97;;;1.20;;
8675;SDS011;4375;52.486;13.424;2024-02-23T14:01:35;15.57;;;1.40;;
8675;SDS011;4375;52.486;13.424;2024-02-23T14:04:05;13.50;;;1.20;;
8675;SDS011;4375;52.486;13.424;2024-02-23T14:06:32;13.70;;;1.23;;
8675;SDS011;4375;52.486;13.424;2024-02-23T14:08:58;15.50;;;1.40;;
8675;SDS011;4375;52.486;13.424;2024-02-23T14:11:23;13.70;;;1.00;;
8675;SDS011;4375;52.486;13.424;2024-02-23T14:13:50;16.23;;;1.37;;
8675;SDS011;4375;52.486;13.424;2024-02-23T14:16:16;14.47;;;1.20;;
8675;SDS011;4375;52.486;13.424;2024-02-23T14:18:41;13.40;;;1.10;;
8675;SDS011;4375;52.486;13.424;2024-02-23T14:21:09;14.30;;;1.30;;
8675;SDS011;4375;52.486;13.424;2024-02-23T14:23:35;14.30;;;1.53;;
8675;SDS011;4375;52.486;13.424;2024-02-23T14:26:02;16.13;;;2.00;;
8675;SDS011;4375;52.486;13.424;2024-02-23T14:28:28;16.87;;;1.40;;
8675;SDS011;4375;52.486;13.424;2024-02-23T14:30:54;14.97;;;1.40;;
8675;SDS011;4375;52.486;13.424;2024-02-23T14:33:20;15.80;;;1.20;;
8675;SDS011;4375;52.486;13.424;2024-02-23T14:35:46;15.23;;;1.10;;
8675;SDS011;4375;52.486;13.424;2024-02-23T14:38:11;14.13;;;1.10;;
8675;SDS011;4375;52.486;13.424;2024-02-23T14:40:37;14.93;;;1.20;;
8675;SDS011;4375;52.486;13.424;2024-02-23T14:43:03;13.40;;;0.90;;
8675;SDS011;4375;52.486;13.424;2024-02-23T14:45:30;15.67;;;1.10;;
8675;SDS011;4375;52.486;13.424;2024-02-23T14:47:55;16.53;;;1.10;;